createdAt,value
2023-01-13T00:01:08.890Z,16.00
2023-01-13T00:03:35.953Z,16.00
2023-01-13T00:06:02.919Z,16.00
2023-01-13T00:08:29.840Z,16.00
2023-01-13T00:10:56.637Z,16.00
2023-01-13T00:13:26.562Z,16.00
2023-01-13T00:15:57.938Z,16.00
2023-01-13T00:18:25.290Z,16.00
2023-01-13T00:21:03.422Z,15.90
2023-01-13T00:23:31.782Z,15.90
2023-01-13T00:26:00.164Z,15.90
2023-01-13T00:28:26.965Z,15.90
2023-01-13T00:30:53.953Z,15.90
2023-01-13T00:33:21.117Z,15.90
2023-01-13T00:35:59.611Z,15.90
2023-01-13T00:38:26.633Z,15.80
2023-01-13T00:41:02.175Z,15.80
2023-01-13T00:43:30.503Z,15.80
2023-01-13T00:45:57.191Z,15.80
2023-01-13T00:48:24.843Z,15.80
2023-01-13T00:51:02.882Z,15.80
2023-01-13T00:53:33.496Z,15.70
2023-01-13T00:56:01.992Z,15.70
2023-01-13T00:58:31.653Z,15.70
2023-01-13T01:01:07.268Z,15.70
2023-01-13T01:03:35.021Z,15.70
2023-01-13T01:06:12.698Z,15.70
2023-01-13T01:08:39.651Z,15.70
2023-01-13T01:11:09.176Z,15.70
2023-01-13T01:13:36.960Z,15.60
2023-01-13T01:16:06.829Z,15.60
2023-01-13T01:18:39.193Z,15.60
2023-01-13T01:21:06.538Z,15.60
2023-01-13T01:23:34.747Z,15.60
2023-01-13T01:26:03.566Z,15.60
2023-01-13T01:28:30.223Z,15.60
2023-01-13T01:30:58.418Z,15.60
2023-01-13T01:33:25.926Z,15.60
2023-01-13T01:35:53.708Z,15.60
2023-01-13T01:38:22.206Z,15.50
2023-01-13T01:40:49.298Z,15.50
2023-01-13T01:43:37.489Z,15.50
2023-01-13T01:46:04.711Z,15.50
2023-01-13T01:48:38.038Z,15.50
2023-01-13T01:51:07.734Z,15.50
2023-01-13T01:53:34.470Z,15.50
2023-01-13T01:56:02.563Z,15.50
2023-01-13T01:58:35.058Z,15.40
2023-01-13T02:01:02.521Z,15.40
2023-01-13T02:03:30.308Z,15.40
2023-01-13T02:05:57.057Z,15.40
2023-01-13T02:08:23.990Z,15.40
2023-01-13T02:10:54.005Z,15.40
2023-01-13T02:13:22.413Z,15.40
2023-01-13T02:16:15.949Z,15.40
2023-01-13T02:19:02.862Z,15.40
2023-01-13T02:21:47.670Z,15.40
2023-01-13T02:24:53.799Z,15.30
2023-01-13T02:27:48.051Z,15.40
2023-01-13T02:30:46.769Z,15.30
2023-01-13T02:33:21.671Z,15.30
2023-01-13T02:35:57.275Z,15.30
2023-01-13T02:38:32.557Z,15.30
2023-01-13T02:41:37.237Z,15.30
2023-01-13T02:44:08.694Z,15.30
2023-01-13T02:46:59.151Z,15.30
2023-01-13T02:49:56.994Z,15.20
2023-01-13T02:52:34.565Z,15.20
2023-01-13T02:55:17.207Z,15.20
2023-01-13T02:57:45.071Z,15.20
2023-01-13T03:00:36.989Z,15.20
2023-01-13T03:03:03.959Z,15.20
2023-01-13T03:05:32.432Z,15.20
2023-01-13T03:08:29.707Z,15.20
2023-01-13T03:11:11.439Z,15.20
2023-01-13T03:13:44.359Z,15.20
2023-01-13T03:16:10.999Z,15.20
2023-01-13T03:19:01.405Z,15.20
2023-01-13T03:21:40.674Z,15.10
2023-01-13T03:24:17.984Z,15.10
2023-01-13T03:27:06.503Z,15.10
2023-01-13T03:29:39.040Z,15.10
2023-01-13T03:32:25.377Z,15.10
2023-01-13T03:34:55.744Z,15.10
2023-01-13T03:37:28.499Z,15.10
2023-01-13T03:40:02.186Z,15.10
2023-01-13T03:42:32.278Z,15.10
2023-01-13T03:45:17.562Z,15.10
2023-01-13T03:47:52.918Z,15.10
2023-01-13T03:50:25.133Z,15.10
2023-01-13T03:53:04.787Z,15.10
2023-01-13T03:55:36.011Z,15.00
2023-01-13T03:58:15.610Z,15.00
2023-01-13T04:01:05.376Z,15.00
2023-01-13T04:03:42.788Z,15.00
2023-01-13T04:06:17.709Z,15.00
2023-01-13T04:09:02.002Z,15.00
2023-01-13T04:11:35.783Z,15.00
2023-01-13T04:14:04.511Z,15.00
2023-01-13T04:16:31.934Z,15.00
2023-01-13T04:18:58.601Z,15.00
2023-01-13T04:21:25.614Z,15.00
2023-01-13T04:23:52.423Z,14.90
2023-01-13T04:26:19.746Z,15.00
2023-01-13T04:28:46.881Z,15.00
2023-01-13T04:31:13.878Z,14.90
2023-01-13T04:33:40.655Z,14.90
2023-01-13T04:36:07.810Z,14.90
2023-01-13T04:38:34.543Z,14.90
2023-01-13T04:41:01.269Z,14.90
2023-01-13T04:43:28.005Z,14.90
2023-01-13T04:45:54.710Z,14.90
2023-01-13T04:48:21.432Z,14.90
2023-01-13T04:50:48.206Z,14.90
2023-01-13T04:53:15.115Z,14.90
2023-01-13T04:55:41.837Z,14.90
2023-01-13T04:58:10.394Z,14.90
2023-01-13T05:00:37.750Z,14.90
2023-01-13T05:03:04.455Z,14.90
2023-01-13T05:05:31.545Z,14.90
2023-01-13T05:07:58.671Z,14.80
2023-01-13T05:10:25.878Z,14.90
2023-01-13T05:13:11.363Z,14.90
2023-01-13T05:15:59.028Z,14.80
2023-01-13T05:18:26.979Z,14.80
2023-01-13T05:20:53.780Z,14.80
2023-01-13T05:23:39.026Z,14.80
2023-01-13T05:26:05.874Z,14.80
2023-01-13T05:28:34.309Z,14.80
2023-01-13T05:31:01.358Z,14.80
2023-01-13T05:33:28.292Z,14.80
2023-01-13T05:35:54.966Z,14.80
2023-01-13T05:38:21.687Z,14.80
2023-01-13T05:41:06.970Z,14.80
2023-01-13T05:43:34.795Z,14.80
2023-01-13T05:46:04.560Z,14.70
2023-01-13T05:48:35.156Z,14.80
2023-01-13T05:51:03.568Z,14.70
2023-01-13T05:53:31.156Z,14.80
2023-01-13T05:55:58.025Z,14.70
2023-01-13T05:58:26.908Z,14.70
2023-01-13T06:00:59.128Z,14.70
2023-01-13T06:03:25.988Z,14.70
2023-01-13T06:05:58.462Z,14.70
2023-01-13T06:08:25.930Z,14.70
2023-01-13T06:10:52.822Z,14.70
2023-01-13T06:13:19.808Z,14.70
2023-01-13T06:15:46.632Z,14.70
2023-01-13T06:18:13.413Z,14.70
2023-01-13T06:20:40.163Z,14.70
2023-01-13T06:23:10.721Z,14.70
2023-01-13T06:25:51.835Z,14.70
2023-01-13T06:28:18.658Z,14.70
2023-01-13T06:30:52.325Z,14.70
2023-01-13T06:33:24.867Z,14.60
2023-01-13T06:36:00.254Z,14.60
2023-01-13T06:38:29.782Z,14.60
2023-01-13T06:40:56.515Z,14.60
2023-01-13T06:43:23.267Z,14.70
2023-01-13T06:45:53.165Z,14.60
2023-01-13T06:48:32.952Z,14.60
2023-01-13T06:51:00.367Z,14.60
2023-01-13T06:53:27.140Z,14.60
2023-01-13T06:55:53.857Z,14.60
2023-01-13T06:58:20.599Z,14.60
2023-01-13T07:00:51.361Z,14.60
2023-01-13T07:03:19.710Z,14.60
2023-01-13T07:05:54.527Z,14.60
2023-01-13T07:08:22.809Z,14.60
2023-01-13T07:10:49.912Z,14.60
2023-01-13T07:13:34.999Z,14.60
2023-01-13T07:16:03.930Z,14.60
2023-01-13T07:18:33.039Z,14.50
2023-01-13T07:21:05.224Z,14.60
2023-01-13T07:23:34.577Z,14.50
2023-01-13T07:26:01.837Z,14.50
2023-01-13T07:28:30.173Z,14.50
2023-01-13T07:30:58.093Z,14.50
2023-01-13T07:33:25.445Z,14.50
2023-01-13T07:36:03.963Z,14.50
2023-01-13T07:38:31.917Z,14.50
2023-01-13T07:40:58.586Z,14.50
2023-01-13T07:43:34.307Z,14.50
2023-01-13T07:46:04.580Z,14.50
2023-01-13T07:48:33.779Z,14.50
2023-01-13T07:51:11.997Z,14.50
2023-01-13T07:53:39.199Z,14.50
2023-01-13T07:56:07.427Z,14.50
2023-01-13T07:58:35.855Z,14.50
2023-01-13T08:01:10.919Z,14.40
2023-01-13T08:03:38.639Z,14.50
2023-01-13T08:06:06.715Z,14.50
2023-01-13T08:08:33.436Z,14.40
2023-01-13T08:11:04.569Z,14.50
2023-01-13T08:13:31.373Z,14.40
2023-01-13T08:16:09.864Z,14.40
2023-01-13T08:18:37.555Z,14.40
2023-01-13T08:21:07.928Z,14.40
2023-01-13T08:23:34.971Z,14.40
2023-01-13T08:26:04.071Z,14.40
2023-01-13T08:28:31.248Z,14.40
2023-01-13T08:31:03.131Z,14.40
2023-01-13T08:33:30.260Z,14.40
2023-01-13T08:35:57.075Z,14.40
2023-01-13T08:38:24.581Z,14.40
2023-01-13T08:40:51.440Z,14.40
2023-01-13T08:43:18.288Z,14.40
2023-01-13T08:45:45.144Z,14.40
2023-01-13T08:48:12.147Z,14.40
2023-01-13T08:50:38.854Z,14.30
2023-01-13T08:53:05.597Z,14.30
2023-01-13T08:55:32.281Z,14.40
2023-01-13T08:58:14.095Z,14.30
2023-01-13T09:00:42.199Z,14.30
2023-01-13T09:03:08.976Z,14.30
2023-01-13T09:08:36.432Z,14.30
2023-01-13T09:11:23.150Z,14.30
2023-01-13T09:13:50.448Z,14.30
2023-01-13T09:16:17.437Z,14.30
2023-01-13T09:18:44.302Z,14.30
2023-01-13T09:21:11.846Z,14.30
2023-01-13T09:23:38.605Z,14.30
2023-01-13T09:26:05.305Z,14.30
2023-01-13T09:28:32.548Z,14.30
2023-01-13T09:31:01.413Z,14.30
2023-01-13T09:33:46.732Z,14.30
2023-01-13T09:36:13.486Z,14.30
2023-01-13T09:38:40.210Z,14.30
2023-01-13T09:41:27.048Z,14.30
2023-01-13T09:43:59.309Z,14.30
2023-01-13T09:46:52.335Z,14.30
2023-01-13T09:49:23.867Z,14.30
2023-01-13T09:52:09.580Z,14.30
2023-01-13T09:55:05.517Z,14.30
2023-01-13T09:57:37.799Z,14.30
2023-01-13T10:00:11.488Z,14.30
2023-01-13T10:02:57.074Z,14.20
2023-01-13T10:05:41.161Z,14.20
2023-01-13T10:08:24.177Z,14.20
2023-01-13T10:10:55.237Z,14.20
2023-01-13T10:13:24.406Z,14.20
2023-01-13T10:16:09.813Z,14.20
2023-01-13T10:18:59.790Z,14.20
2023-01-13T10:21:41.950Z,14.20
2023-01-13T10:24:44.503Z,14.20
2023-01-13T10:27:24.787Z,14.20
2023-01-13T10:29:51.463Z,14.20
2023-01-13T10:32:18.167Z,14.20
2023-01-13T10:34:57.235Z,14.20
2023-01-13T10:37:26.641Z,14.20
2023-01-13T10:40:00.891Z,14.20
2023-01-13T10:42:27.700Z,14.20
2023-01-13T10:44:59.480Z,14.20
2023-01-13T10:47:37.179Z,14.20
2023-01-13T10:50:13.025Z,14.20
2023-01-13T10:52:54.999Z,14.20
2023-01-13T10:55:24.737Z,14.20
2023-01-13T10:57:51.493Z,14.20
2023-01-13T11:00:30.842Z,14.20
2023-01-13T11:03:23.131Z,14.20
2023-01-13T11:06:00.718Z,14.20
2023-01-13T11:08:30.626Z,14.20
2023-01-13T11:10:59.399Z,14.20
2023-01-13T11:13:35.931Z,14.20
2023-01-13T11:16:13.282Z,14.20
2023-01-13T11:19:02.470Z,14.20
2023-01-13T11:21:36.539Z,14.20
2023-01-13T11:24:16.670Z,14.20
2023-01-13T11:27:09.900Z,14.10
2023-01-13T11:29:55.390Z,14.10
2023-01-13T11:32:24.301Z,14.10
2023-01-13T11:34:56.555Z,14.10
2023-01-13T11:37:31.202Z,14.10
2023-01-13T11:40:12.931Z,14.10
2023-01-13T11:42:59.126Z,14.10
2023-01-13T11:45:44.396Z,14.20
2023-01-13T11:48:21.840Z,14.10
2023-01-13T11:51:09.541Z,14.10
2023-01-13T11:54:09.075Z,14.10
2023-01-13T11:56:41.547Z,14.10
2023-01-13T11:59:23.438Z,14.10
2023-01-13T12:01:59.528Z,14.10
2023-01-13T12:04:33.252Z,14.10
2023-01-13T12:07:17.349Z,14.10
2023-01-13T12:10:17.628Z,14.10
2023-01-13T12:12:49.182Z,14.10
2023-01-13T12:15:22.189Z,14.10
2023-01-13T12:18:07.456Z,14.10
2023-01-13T12:20:40.320Z,14.10
2023-01-13T12:23:16.730Z,14.10
2023-01-13T12:25:52.690Z,14.10
2023-01-13T12:28:32.337Z,14.10
2023-01-13T12:31:01.193Z,14.10
2023-01-13T12:34:01.199Z,14.10
2023-01-13T12:36:52.049Z,14.10
2023-01-13T12:39:45.456Z,14.10
2023-01-13T12:42:39.430Z,14.10
2023-01-13T12:45:12.001Z,14.10
2023-01-13T12:47:43.485Z,14.10
2023-01-13T12:50:22.314Z,14.10
2023-01-13T12:52:49.958Z,14.10
2023-01-13T12:55:36.366Z,14.10
2023-01-13T12:58:06.033Z,14.10
2023-01-13T13:00:41.494Z,14.10
2023-01-13T13:03:11.168Z,14.10
2023-01-13T13:05:50.058Z,14.10
2023-01-13T13:08:23.141Z,14.10
2023-01-13T13:11:05.805Z,14.10
2023-01-13T13:13:46.150Z,14.10
2023-01-13T13:16:29.385Z,14.10
2023-01-13T13:19:18.112Z,14.10
2023-01-13T13:22:06.501Z,14.10
2023-01-13T13:24:33.969Z,14.10
2023-01-13T13:27:35.192Z,14.10
2023-01-13T13:30:13.229Z,14.00
2023-01-13T13:33:04.671Z,14.10
2023-01-13T13:35:43.211Z,14.00
2023-01-13T13:38:52.628Z,14.00
2023-01-13T13:41:41.169Z,14.10
2023-01-13T13:44:54.365Z,14.10
2023-01-13T13:47:21.568Z,14.10
2023-01-13T13:49:53.510Z,14.10
2023-01-13T13:52:30.203Z,14.00
2023-01-13T13:55:12.738Z,14.10
2023-01-13T13:57:42.396Z,14.10
2023-01-13T14:00:35.893Z,14.10
2023-01-13T14:03:31.087Z,14.10
2023-01-13T14:05:59.360Z,14.10
2023-01-13T14:08:30.140Z,14.10
2023-01-13T14:10:56.968Z,14.10
2023-01-13T14:13:29.191Z,14.00
2023-01-13T14:15:59.744Z,14.10
2023-01-13T14:18:29.023Z,14.00
2023-01-13T14:21:05.089Z,14.00
2023-01-13T14:23:34.541Z,14.10
2023-01-13T14:26:09.369Z,14.00
2023-01-13T14:28:38.283Z,14.10
2023-01-13T14:31:08.923Z,14.00
2023-01-13T14:33:42.743Z,14.10
2023-01-13T14:36:20.383Z,14.10
2023-01-13T14:39:05.552Z,14.00
2023-01-13T14:41:35.117Z,14.00
2023-01-13T14:44:12.416Z,14.00
2023-01-13T14:46:41.173Z,14.10
2023-01-13T14:49:26.967Z,14.00
2023-01-13T14:51:54.321Z,14.00
2023-01-13T14:54:53.734Z,14.00
2023-01-13T14:57:34.389Z,14.00
2023-01-13T15:00:16.134Z,14.00
2023-01-13T15:02:58.224Z,14.00
2023-01-13T15:05:30.002Z,14.00
2023-01-13T15:08:08.548Z,14.00
2023-01-13T15:11:05.365Z,14.00
2023-01-13T15:13:42.270Z,14.00
2023-01-13T15:16:20.944Z,14.00
2023-01-13T15:18:48.207Z,14.00
2023-01-13T15:21:15.814Z,14.00
2023-01-13T15:23:43.127Z,14.00
2023-01-13T15:26:20.473Z,14.00
2023-01-13T15:28:48.362Z,14.00
2023-01-13T15:31:15.687Z,14.00
2023-01-13T15:33:43.147Z,14.00
2023-01-13T15:36:28.365Z,14.00
2023-01-13T15:38:55.835Z,14.00
2023-01-13T15:41:41.147Z,14.00
2023-01-13T15:44:28.504Z,14.00
2023-01-13T15:46:56.184Z,14.00
2023-01-13T15:49:44.105Z,14.00
2023-01-13T15:52:23.697Z,14.00
2023-01-13T15:54:51.431Z,14.00
2023-01-13T15:57:30.405Z,13.90
2023-01-13T16:00:01.258Z,14.00
2023-01-13T16:02:33.511Z,14.00
2023-01-13T16:05:00.255Z,13.90
2023-01-13T16:07:27.065Z,13.90
2023-01-13T16:09:54.145Z,13.90
2023-01-13T16:12:20.904Z,14.00
2023-01-13T16:14:47.609Z,14.00
2023-01-13T16:17:17.288Z,13.90
2023-01-13T16:19:44.923Z,13.90
2023-01-13T16:22:14.241Z,13.90
2023-01-13T16:24:41.609Z,14.00
2023-01-13T16:27:17.877Z,13.90
2023-01-13T16:29:45.554Z,13.90
2023-01-13T16:32:12.992Z,13.90
2023-01-13T16:34:40.485Z,13.90
2023-01-13T16:37:17.791Z,13.90
2023-01-13T16:39:44.581Z,13.90
2023-01-13T16:42:11.363Z,13.90
2023-01-13T16:44:38.025Z,13.90
2023-01-13T16:47:05.007Z,13.90
2023-01-13T16:49:31.865Z,13.90
2023-01-13T16:51:58.606Z,13.90
2023-01-13T16:54:25.279Z,13.90
2023-01-13T16:56:52.047Z,13.90
2023-01-13T16:59:18.785Z,13.90
2023-01-13T17:01:45.802Z,13.90
2023-01-13T17:04:16.153Z,13.90
2023-01-13T17:06:51.878Z,13.90
2023-01-13T17:09:21.027Z,13.90
2023-01-13T17:11:47.857Z,14.00
2023-01-13T17:14:18.368Z,13.90
2023-01-13T17:16:46.416Z,13.90
2023-01-13T17:19:13.846Z,13.90
2023-01-13T17:21:40.741Z,14.00
2023-01-13T17:24:09.432Z,14.00
2023-01-13T17:26:43.711Z,14.00
2023-01-13T17:29:13.812Z,14.00
2023-01-13T17:31:41.031Z,14.10
2023-01-13T17:34:08.470Z,14.20
2023-01-13T17:36:35.150Z,14.20
2023-01-13T17:39:01.929Z,14.40
2023-01-13T17:41:28.749Z,14.50
2023-01-13T17:43:55.566Z,14.60
2023-01-13T17:46:23.091Z,14.80
2023-01-13T17:48:54.023Z,14.90
2023-01-13T17:51:22.732Z,15.00
2023-01-13T17:53:49.738Z,15.20
2023-01-13T17:56:17.208Z,15.30
2023-01-13T17:58:45.478Z,15.40
2023-01-13T18:01:17.837Z,15.50
2023-01-13T18:03:45.307Z,15.70
2023-01-13T18:06:21.355Z,15.80
2023-01-13T18:08:48.775Z,15.90
2023-01-13T18:11:18.851Z,16.00
2023-01-13T18:13:49.583Z,16.10
2023-01-13T18:16:19.330Z,16.10
2023-01-13T18:18:48.411Z,16.20
2023-01-13T18:21:43.028Z,16.30
2023-01-13T18:24:33.498Z,16.30
2023-01-13T18:27:19.074Z,16.40
2023-01-13T18:29:46.447Z,16.40
2023-01-13T18:32:13.507Z,16.50
2023-01-13T18:34:40.647Z,16.50
2023-01-13T18:37:09.342Z,16.50
2023-01-13T18:39:38.897Z,16.50
2023-01-13T18:42:26.126Z,16.50
2023-01-13T18:44:53.175Z,16.50
2023-01-13T18:47:20.043Z,16.50
2023-01-13T18:49:46.902Z,16.50
2023-01-13T18:52:13.617Z,16.50
2023-01-13T18:54:40.474Z,16.50
2023-01-13T18:57:07.278Z,16.40
2023-01-13T18:59:34.750Z,16.40
2023-01-13T19:02:02.527Z,16.40
2023-01-13T19:04:29.771Z,16.40
2023-01-13T19:07:00.948Z,16.40
2023-01-13T19:09:28.709Z,16.40
2023-01-13T19:11:57.364Z,16.30
2023-01-13T19:14:35.036Z,16.30
2023-01-13T19:17:21.716Z,16.30
2023-01-13T19:19:55.071Z,16.20
2023-01-13T19:22:27.044Z,16.20
2023-01-13T19:24:53.878Z,16.20
2023-01-13T19:27:21.825Z,16.20
2023-01-13T19:29:52.365Z,16.10
2023-01-13T19:32:22.645Z,16.10
2023-01-13T19:34:51.009Z,16.00
2023-01-13T19:37:18.665Z,16.00
2023-01-13T19:39:45.401Z,16.00
2023-01-13T19:42:31.739Z,15.90
2023-01-13T19:45:17.333Z,15.90
2023-01-13T19:47:45.513Z,15.90
2023-01-13T19:50:13.599Z,15.80
2023-01-13T19:52:41.530Z,15.80
2023-01-13T19:55:10.722Z,15.80
2023-01-13T19:57:39.398Z,15.80
2023-01-13T20:00:11.010Z,15.70
2023-01-13T20:02:47.529Z,15.70
2023-01-13T20:05:18.123Z,15.70
2023-01-13T20:07:44.881Z,15.70
2023-01-13T20:10:13.221Z,15.60
2023-01-13T20:12:48.383Z,15.60
2023-01-13T20:15:19.639Z,15.60
2023-01-13T20:17:46.349Z,15.60
2023-01-13T20:20:15.640Z,15.60
2023-01-13T20:22:42.761Z,15.50
2023-01-13T20:25:16.646Z,15.50
2023-01-13T20:27:45.088Z,15.50
2023-01-13T20:30:14.317Z,15.50
2023-01-13T20:32:42.533Z,15.40
2023-01-13T20:35:10.411Z,15.40
2023-01-13T20:37:38.580Z,15.40
2023-01-13T20:40:06.865Z,15.40
2023-01-13T20:42:42.402Z,15.40
2023-01-13T20:45:09.997Z,15.30
2023-01-13T20:47:36.793Z,15.30
2023-01-13T20:50:03.905Z,15.30
2023-01-13T20:52:30.651Z,15.30
2023-01-13T20:54:57.305Z,15.30
2023-01-13T20:57:24.018Z,15.20
2023-01-13T20:59:50.733Z,15.20
2023-01-13T21:02:17.922Z,15.20
2023-01-13T21:04:44.630Z,15.20
2023-01-13T21:07:11.580Z,15.20
2023-01-13T21:09:38.503Z,15.20
2023-01-13T21:12:25.273Z,15.10
2023-01-13T21:15:10.634Z,15.10
2023-01-13T21:17:56.126Z,15.10
2023-01-13T21:20:23.073Z,15.10
2023-01-13T21:22:49.880Z,15.00
2023-01-13T21:25:17.929Z,15.10
2023-01-13T21:27:44.799Z,15.00
2023-01-13T21:30:15.708Z,15.00
2023-01-13T21:32:43.483Z,15.00
2023-01-13T21:35:10.858Z,15.00
2023-01-13T21:37:38.489Z,15.00
2023-01-13T21:40:07.074Z,14.90
2023-01-13T21:42:52.319Z,14.90
2023-01-13T21:45:37.924Z,14.90
2023-01-13T21:48:05.056Z,14.90
2023-01-13T21:50:31.871Z,14.90
2023-01-13T21:52:59.538Z,14.90
2023-01-13T21:55:26.777Z,14.90
2023-01-13T21:58:06.513Z,14.90
2023-01-13T22:00:34.032Z,14.80
2023-01-13T22:03:04.296Z,14.80
2023-01-13T22:05:31.369Z,14.80
2023-01-13T22:07:58.059Z,14.80
2023-01-13T22:10:27.846Z,14.80
2023-01-13T22:12:57.197Z,14.70
2023-01-13T22:15:29.004Z,14.70
2023-01-13T22:17:56.915Z,14.70
2023-01-13T22:20:23.899Z,14.70
2023-01-13T22:22:50.579Z,14.70
2023-01-13T22:25:20.052Z,14.70
2023-01-13T22:27:48.287Z,14.70
2023-01-13T22:30:21.618Z,14.60
2023-01-13T22:32:48.459Z,14.60
2023-01-13T22:35:16.022Z,14.60
2023-01-13T22:37:43.282Z,14.60
2023-01-13T22:40:11.773Z,14.60
2023-01-13T22:42:42.908Z,14.60
2023-01-13T22:45:14.055Z,14.60
2023-01-13T22:47:41.212Z,14.60
2023-01-13T22:50:09.005Z,14.60
2023-01-13T22:52:36.209Z,14.60
2023-01-13T22:55:03.138Z,14.60
2023-01-13T22:57:36.069Z,14.50
2023-01-13T23:00:10.407Z,14.50
2023-01-13T23:02:38.368Z,14.50
2023-01-13T23:05:05.439Z,14.50
2023-01-13T23:07:32.244Z,14.50
2023-01-13T23:09:59.039Z,14.50
2023-01-13T23:12:25.758Z,14.50
2023-01-13T23:14:52.505Z,14.50
2023-01-13T23:17:19.243Z,14.50
2023-01-13T23:19:45.897Z,14.50
2023-01-13T23:22:13.511Z,14.50
2023-01-13T23:24:40.314Z,14.50
2023-01-13T23:27:07.170Z,14.40
2023-01-13T23:29:33.866Z,14.40
2023-01-13T23:32:00.604Z,14.40
2023-01-13T23:34:27.364Z,14.40
2023-01-13T23:36:54.064Z,14.40
2023-01-13T23:39:20.737Z,14.40
2023-01-13T23:41:47.439Z,14.40
2023-01-13T23:44:14.129Z,14.40
2023-01-13T23:46:41.011Z,14.40
2023-01-13T23:49:07.769Z,14.40
2023-01-13T23:51:34.610Z,14.40
2023-01-13T23:54:01.475Z,14.40
2023-01-13T23:56:31.261Z,14.40
2023-01-13T23:58:58.592Z,14.30
